Pagina principale
METAR-TAF:

METAR-TAF

Aeroporti :

Schwäbisch Hall, Germania

latitudine: 49-07-06N, longitudine: 9-47-02E, altezza: 398 m

Osservazione

Il bollettino è stato emesso 10 minuti fa, alle 01:20 UTC
Vento 2 kt da direzioni variabili
Temperature 7°C
Umidità 76%
Pressione 1020 hPa
Visibilità 10 km o più

METAR: EDTY 310120Z AUTO VRB02KT 9999 // FEW071/// 07/03 Q1020

Ora: 03:30 (01:30 UTC)

Previsione

Il bollettino è stato emesso 11 ore e 30 minuti fa, alle 14:00 UTC
Previsione valida dal 30 alle 15 UTC al 30 alle 24 UTC
Vento 9 kt da nord-est
Visibilità 10 km o più
Nubi sparse ad un'altezza di 4500 ft
Evoluzione graduale
dal 30 alle 19 UTC al 30 alle 21 UTC
Vento 4 kt da nord/nord-est

TAF: EDTY 301400Z 3015/3024 04009KT 9999 SCT045 BECMG 3019/3021 02004KT

Osservazioni e previsioni meteorologiche di più di 4000 aeroporti (messaggi METAR e TAF).

Le stazioni disponibili sono rappresentate dai dischi gialli e rossi sulla carta.

Puntare il mouse per vedere il nome della stazione.

Clicca sopra per visualizzare le osservazioni e previsioni meteorologiche.

Per cambiare la mappa : fare clic sui pulsanti verdi con una croce nera per ingrandire, il pulsante verde con un trattino per diminuire, o sulla freccia verde per le mappe adiacenti.


METAR-TAF: